Time;durP1;ratioP1;P1;durP2;ratioP2;P2;SDS_P1;SDS_P2;PMS_P1;PMS_P2;Temp;Humidity;BMP_temperature;BMP_pressure;BME280_temperature;BME280_humidity;BME280_pressure;Samples;Min_cycle;Max_cycle;Signal;HPM_P1;HPM_P2
2021/12/28 00:00:11;;;;;;;29.42;13.07;;;;;;;0.46;77.42;99995.03;5591297;31;34026;-67
2021/12/28 00:03:13;;;;;;;25.83;13.07;;;;;;;0.32;76.98;99996.03;5590966;31;34674;-67
2021/12/28 00:06:17;;;;;;;31.08;14.50;;;;;;;0.41;77.46;99991.91;5591094;31;34026;-67
2021/12/28 00:09:20;;;;;;;29.40;13.62;;;;;;;0.31;76.90;99991.75;5591281;31;34655;-68
2021/12/28 00:12:23;;;;;;;28.83;14.25;;;;;;;0.37;76.69;99988.72;5590948;31;35283;-67
2021/12/28 00:18:28;;;;;;;28.45;15.02;;;;;;;0.29;76.07;99988.41;5590881;31;34564;-67
2021/12/28 00:21:31;;;;;;;33.88;15.32;;;;;;;0.24;76.17;99989.72;5590873;31;34723;-67
2021/12/28 00:24:35;;;;;;;30.02;15.57;;;;;;;0.28;75.71;99978.13;5590860;31;34672;-67
2021/12/28 00:27:38;;;;;;;31.23;14.77;;;;;;;0.14;75.90;99994.78;5590868;31;34965;-67
2021/12/28 00:30:41;;;;;;;35.28;16.17;;;;;;;0.22;76.61;99987.22;5590776;31;34021;-67
2021/12/28 00:33:45;;;;;;;33.10;15.38;;;;;;;0.17;76.76;99980.66;5590537;31;34120;-67
2021/12/28 00:36:48;;;;;;;33.33;15.15;;;;;;;0.18;77.57;99979.72;5591011;31;34009;-67
2021/12/28 00:39:51;;;;;;;33.92;15.57;;;;;;;0.26;77.04;99980.00;5589943;31;33939;-69
2021/12/28 00:42:54;;;;;;;30.17;14.68;;;;;;;0.09;76.04;99981.25;5590670;31;34533;-68
2021/12/28 00:45:57;;;;;;;31.60;14.35;;;;;;;0.12;76.04;99977.56;5591004;31;33969;-68
2021/12/28 00:49:00;;;;;;;28.52;14.52;;;;;;;0.01;76.73;99993.97;5590648;31;34367;-68
2021/12/28 00:52:03;;;;;;;29.33;14.32;;;;;;;0.02;76.97;99993.03;5590961;31;35161;-68
2021/12/28 00:55:07;;;;;;;33.40;14.73;;;;;;;0.13;78.53;99992.28;5590476;31;33957;-68
2021/12/28 00:58:10;;;;;;;30.42;13.65;;;;;;;0.09;79.48;99996.88;5590411;31;34149;-68
2021/12/28 01:01:12;;;;;;;31.20;15.30;;;;;;;0.12;80.21;99991.44;5590887;31;33887;-69
2021/12/28 01:04:16;;;;;;;27.52;13.88;;;;;;;0.06;82.33;99993.63;5590472;31;34019;-67
2021/12/28 01:07:19;;;;;;;31.67;13.10;;;;;;;0.10;82.59;99985.47;5589925;31;33989;-67
2021/12/28 01:10:26;;;;;;;29.58;14.38;;;;;;;0.00;84.56;99987.94;5590505;31;33971;-67
2021/12/28 01:13:29;;;;;;;30.92;15.07;;;;;;;-0.10;85.94;99993.94;5590209;31;33959;-68
2021/12/28 01:16:32;;;;;;;34.03;16.75;;;;;;;-0.15;87.42;99991.66;5590740;31;34288;-69
2021/12/28 01:19:35;;;;;;;35.55;15.45;;;;;;;-0.32;89.85;99993.78;5590277;31;34699;-69
2021/12/28 01:22:39;;;;;;;34.28;15.13;;;;;;;-0.36;90.12;99989.72;5590352;31;34559;-68
2021/12/28 01:25:42;;;;;;;36.85;17.67;;;;;;;-0.23;90.29;99982.69;5589916;31;33995;-68
2021/12/28 01:28:44;;;;;;;34.85;17.42;;;;;;;-0.28;89.60;99974.38;5590082;31;34097;-67
2021/12/28 01:31:47;;;;;;;30.73;14.35;;;;;;;-0.41;91.86;99987.44;5589339;31;35090;-69
2021/12/28 01:34:50;;;;;;;29.83;14.73;;;;;;;-0.29;92.08;99977.94;5590236;31;33452;-69
2021/12/28 01:37:53;;;;;;;34.88;16.50;;;;;;;-0.32;90.96;99978.13;5590302;31;33989;-69
2021/12/28 01:40:56;;;;;;;37.40;16.80;;;;;;;-0.29;91.18;99975.34;5590198;31;34042;-68
2021/12/28 01:44:04;;;;;;;34.00;16.50;;;;;;;-0.29;91.63;99970.94;5590060;31;34068;-68
2021/12/28 01:47:07;;;;;;;35.70;17.45;;;;;;;-0.26;91.79;99977.72;5589704;31;35282;-67
2021/12/28 01:50:10;;;;;;;34.75;14.90;;;;;;;-0.27;92.08;99974.25;5589580;31;34623;-69
2021/12/28 01:53:14;;;;;;;35.15;15.40;;;;;;;-0.27;93.07;99970.81;5590080;31;34059;-67
2021/12/28 01:56:29;;;;;;;30.85;14.15;;;;;;;-0.35;94.48;99963.56;5590056;31;34038;-68
2021/12/28 01:59:32;;;;;;;34.33;15.45;;;;;;;-0.41;95.54;99957.94;5589833;31;34709;-67
2021/12/28 02:02:35;;;;;;;32.60;15.57;;;;;;;-0.44;96.87;99959.81;5589222;31;34047;-67
2021/12/28 02:05:39;;;;;;;39.72;17.48;;;;;;;-0.39;95.11;99956.91;5589897;31;34417;-67
2021/12/28 02:08:42;;;;;;;36.20;17.73;;;;;;;-0.54;94.57;99956.22;5590201;31;33970;-67
2021/12/28 02:11:45;;;;;;;35.92;16.00;;;;;;;-0.56;94.24;99959.84;5589928;31;33884;-67
2021/12/28 02:14:48;;;;;;;36.58;16.08;;;;;;;-0.61;94.51;99960.19;5589146;31;33978;-67
2021/12/28 02:17:51;;;;;;;35.70;17.12;;;;;;;-0.58;94.94;99965.16;5589918;31;34237;-67
2021/12/28 02:20:55;;;;;;;39.08;18.15;;;;;;;-0.59;95.46;99971.34;5588641;31;34338;-67
2021/12/28 02:24:06;;;;;;;32.00;14.98;;;;;;;-0.47;95.41;99962.66;5589036;31;34549;-69
2021/12/28 02:27:09;;;;;;;33.65;17.10;;;;;;;-0.49;95.68;99964.53;5589646;31;33993;-69
2021/12/28 02:30:17;;;;;;;36.53;16.25;;;;;;;-0.56;96.26;99959.84;5589689;31;34124;-67
2021/12/28 02:33:23;;;;;;;33.47;16.15;;;;;;;-0.65;96.54;99952.69;5589517;31;34161;-67
2021/12/28 02:36:26;;;;;;;35.45;18.52;;;;;;;-0.57;95.67;99955.56;5589756;31;34056;-69
2021/12/28 02:39:29;;;;;;;42.72;19.62;;;;;;;-0.54;96.81;99953.63;5589653;31;34398;-66
2021/12/28 02:42:32;;;;;;;38.60;19.27;;;;;;;-0.51;95.66;99940.34;5589584;31;35187;-69
2021/12/28 02:45:38;;;;;;;41.72;19.02;;;;;;;-0.46;95.18;99938.25;5589603;31;33922;-66
2021/12/28 02:48:43;;;;;;;45.35;18.33;;;;;;;-0.39;94.48;99933.47;5589597;31;34732;-67
2021/12/28 02:51:45;;;;;;;41.58;17.98;;;;;;;-0.41;95.45;99940.53;5589556;31;33923;-67
2021/12/28 02:54:48;;;;;;;38.47;18.62;;;;;;;-0.41;95.90;99945.75;5589504;31;33892;-67
2021/12/28 02:58:01;;;;;;;44.00;19.17;;;;;;;-0.45;96.69;99939.09;5589549;31;33961;-67
2021/12/28 03:01:14;;;;;;;44.40;18.35;;;;;;;-0.44;96.42;99928.53;5589304;31;34290;-67
2021/12/28 03:04:17;;;;;;;54.03;20.37;;;;;;;-0.36;97.54;99925.41;5589409;31;34287;-68
2021/12/28 03:07:22;;;;;;;45.35;20.25;;;;;;;-0.58;99.19;99926.09;5589489;31;33906;-67
2021/12/28 03:10:25;;;;;;;43.70;20.10;;;;;;;-0.50;100.00;99934.22;5588962;31;34683;-67
2021/12/28 03:13:32;;;;;;;40.75;18.55;;;;;;;-0.34;99.47;99936.56;5588569;31;34017;-67
2021/12/28 03:16:34;;;;;;;43.67;18.12;;;;;;;-0.51;100.00;99944.72;5589342;31;34579;-67
2021/12/28 03:19:37;;;;;;;37.72;19.12;;;;;;;-0.45;100.00;99944.31;5589210;31;33979;-67
2021/12/28 03:22:40;;;;;;;43.30;18.80;;;;;;;-0.54;100.00;99942.34;5588445;31;34082;-67
2021/12/28 03:25:44;;;;;;;47.13;18.37;;;;;;;-0.60;100.00;99943.62;5588947;31;34293;-67
2021/12/28 03:28:48;;;;;;;48.22;19.48;;;;;;;-0.59;100.00;99934.88;5589056;31;33191;-67
2021/12/28 03:31:51;;;;;;;56.42;19.45;;;;;;;-0.64;100.00;99925.72;5588276;31;34091;-67
2021/12/28 03:34:54;;;;;;;43.70;19.12;;;;;;;-0.60;100.00;99933.19;5588215;31;33953;-67
2021/12/28 03:37:56;;;;;;;49.60;19.65;;;;;;;-0.64;100.00;99929.16;5588191;31;34595;-67
2021/12/28 03:41:00;;;;;;;45.55;19.80;;;;;;;-0.64;100.00;99926.53;5588897;31;34098;-67
2021/12/28 03:44:03;;;;;;;41.00;19.42;;;;;;;-0.52;100.00;99933.47;5588786;31;34041;-67
2021/12/28 03:47:06;;;;;;;52.00;20.52;;;;;;;-0.46;100.00;99932.22;5588338;31;34006;-67
2021/12/28 03:50:11;;;;;;;58.92;22.73;;;;;;;-0.68;100.00;99935.50;5588646;31;34270;-68
2021/12/28 03:53:13;;;;;;;52.53;22.95;;;;;;;-0.69;100.00;99941.66;5588637;31;34582;-67
2021/12/28 03:56:17;;;;;;;53.92;20.80;;;;;;;-0.66;100.00;99935.38;5588580;31;33963;-67
2021/12/28 03:59:20;;;;;;;50.60;21.87;;;;;;;-0.62;100.00;99939.44;5588553;31;34020;-68
2021/12/28 04:02:23;;;;;;;58.92;22.10;;;;;;;-0.67;100.00;99944.12;5588399;31;34746;-67
2021/12/28 04:05:29;;;;;;;46.05;18.65;;;;;;;-0.77;100.00;99946.56;5588617;31;34067;-67
2021/12/28 04:08:32;;;;;;;45.90;19.58;;;;;;;-0.80;100.00;99945.94;5587937;31;34282;-67
2021/12/28 04:11:35;;;;;;;50.80;19.02;;;;;;;-0.69;100.00;99952.06;5588354;31;33924;-67
2021/12/28 04:14:37;;;;;;;52.40;20.08;;;;;;;-0.61;100.00;99949.75;5588274;31;34652;-67
2021/12/28 04:17:41;;;;;;;44.10;18.55;;;;;;;-0.75;100.00;99942.06;5588153;31;34680;-67
2021/12/28 04:20:44;;;;;;;51.72;19.98;;;;;;;-0.63;100.00;99941.19;5588177;31;33901;-67
2021/12/28 04:23:47;;;;;;;46.78;17.83;;;;;;;-0.51;100.00;99937.75;5587386;31;34554;-67
2021/12/28 04:26:50;;;;;;;48.15;19.23;;;;;;;-0.54;100.00;99937.16;5587887;31;34041;-67
2021/12/28 04:29:53;;;;;;;40.10;17.85;;;;;;;-0.57;100.00;99938.19;5587984;31;34034;-67
2021/12/28 04:32:56;;;;;;;50.22;19.37;;;;;;;-0.66;100.00;99946.63;5587634;31;34190;-67
2021/12/28 04:35:59;;;;;;;47.88;20.02;;;;;;;-0.89;100.00;99937.84;5588018;31;33797;-68
2021/12/28 04:39:04;;;;;;;49.65;20.73;;;;;;;-0.86;100.00;99941.97;5587901;31;34630;-68
2021/12/28 04:42:07;;;;;;;46.88;17.62;;;;;;;-0.95;100.00;99950.44;5587727;31;33964;-68
2021/12/28 04:45:11;;;;;;;42.53;16.52;;;;;;;-0.95;100.00;99950.44;5590504;31;34661;-67
2021/12/28 04:48:14;;;;;;;47.47;18.08;;;;;;;-0.86;100.00;99944.59;5590650;31;33963;-68
2021/12/28 04:51:17;;;;;;;48.08;19.45;;;;;;;-0.65;100.00;99947.47;5590635;31;34692;-69
2021/12/28 04:54:20;;;;;;;49.00;18.90;;;;;;;-0.67;100.00;99944.97;5590606;31;33849;-69
2021/12/28 04:57:23;;;;;;;44.28;19.90;;;;;;;-0.65;100.00;99942.28;5589949;31;34592;-67
2021/12/28 05:00:26;;;;;;;42.75;19.75;;;;;;;-0.72;100.00;99944.47;5591010;31;34029;-67
2021/12/28 05:03:28;;;;;;;45.38;17.37;;;;;;;-0.94;100.00;99936.47;5590459;31;34762;-68
2021/12/28 05:06:34;;;;;;;47.28;17.20;;;;;;;-0.79;100.00;99937.19;5590852;31;34576;-67
2021/12/28 05:09:37;;;;;;;48.45;18.95;;;;;;;-0.76;100.00;99935.19;5590721;31;34040;-67
2021/12/28 05:12:40;;;;;;;43.90;19.33;;;;;;;-0.73;100.00;99939.37;5590721;31;34597;-67
2021/12/28 05:15:46;;;;;;;44.75;19.75;;;;;;;-0.87;100.00;99935.09;5590363;31;34707;-67
2021/12/28 05:18:49;;;;;;;44.28;20.12;;;;;;;-0.89;100.00;99937.00;5590220;31;33896;-67
2021/12/28 05:21:52;;;;;;;39.42;16.55;;;;;;;-0.82;100.00;99937.41;5589607;31;34129;-67
2021/12/28 05:24:55;;;;;;;36.67;15.52;;;;;;;-1.01;100.00;99932.63;5589492;31;34598;-67
2021/12/28 05:27:58;;;;;;;39.25;16.77;;;;;;;-0.96;100.00;99953.97;5590223;31;33926;-69
2021/12/28 05:31:01;;;;;;;38.28;16.55;;;;;;;-1.04;100.00;99946.69;5590393;31;33977;-69
2021/12/28 05:34:07;;;;;;;35.22;15.00;;;;;;;-0.97;100.00;99942.72;5589859;31;34103;-69
2021/12/28 05:37:10;;;;;;;40.42;15.82;;;;;;;-0.99;100.00;99954.19;5590159;31;34653;-69
2021/12/28 05:40:14;;;;;;;27.37;12.80;;;;;;;-0.84;100.00;99954.91;5590223;31;34666;-69
2021/12/28 05:43:17;;;;;;;30.62;12.10;;;;;;;-0.81;100.00;99954.69;5590113;31;33926;-67
2021/12/28 05:46:20;;;;;;;29.08;13.23;;;;;;;-0.78;100.00;99949.28;5589949;31;33996;-67
2021/12/28 05:49:23;;;;;;;34.13;13.05;;;;;;;-0.85;100.00;99953.22;5590050;31;34027;-68
2021/12/28 05:52:26;;;;;;;30.67;13.43;;;;;;;-0.90;100.00;99951.78;5590178;31;32829;-69
2021/12/28 05:55:30;;;;;;;31.67;13.35;;;;;;;-0.93;100.00;99958.97;5589581;31;34285;-67
2021/12/28 05:58:33;;;;;;;29.67;12.27;;;;;;;-0.99;100.00;99968.03;5589742;31;33985;-69
2021/12/28 06:01:36;;;;;;;29.30;12.57;;;;;;;-0.84;100.00;99967.94;5589506;31;34035;-69
2021/12/28 06:04:39;;;;;;;26.20;11.75;;;;;;;-0.96;100.00;99975.63;5589866;31;34132;-67
2021/12/28 06:07:42;;;;;;;24.20;10.07;;;;;;;-1.12;100.00;99974.19;5589971;31;34286;-67
2021/12/28 06:10:45;;;;;;;31.23;12.13;;;;;;;-1.13;100.00;99978.56;5590302;31;33989;-69
2021/12/28 06:13:47;;;;;;;31.02;12.10;;;;;;;-1.16;100.00;99976.16;5589873;31;34315;-69
2021/12/28 06:16:50;;;;;;;25.48;11.12;;;;;;;-1.11;100.00;99976.66;5589899;31;33902;-69
2021/12/28 06:19:53;;;;;;;25.05;10.90;;;;;;;-1.19;100.00;99973.75;5589715;31;33919;-69
2021/12/28 06:22:56;;;;;;;25.48;10.88;;;;;;;-1.10;100.00;99977.50;5589045;31;34627;-69
2021/12/28 06:25:59;;;;;;;29.75;11.23;;;;;;;-1.16;100.00;99983.94;5589720;31;34588;-69
2021/12/28 06:29:05;;;;;;;28.87;11.23;;;;;;;-1.21;100.00;99988.63;5589284;31;35306;-69
2021/12/28 06:32:08;;;;;;;26.98;11.90;;;;;;;-1.18;100.00;99991.06;5589835;31;34010;-67
2021/12/28 06:35:12;;;;;;;31.25;13.32;;;;;;;-1.27;100.00;100002.06;5589620;31;34513;-67
2021/12/28 06:38:14;;;;;;;34.92;14.52;;;;;;;-1.19;100.00;99998.94;5589918;31;33958;-67
2021/12/28 06:41:17;;;;;;;38.33;13.57;;;;;;;-1.27;100.00;100004.69;5589597;31;33895;-68
2021/12/28 06:44:20;;;;;;;38.65;16.02;;;;;;;-1.16;100.00;100006.56;5588876;31;33982;-67
2021/12/28 06:47:23;;;;;;;31.23;14.02;;;;;;;-1.28;100.00;100000.41;5589669;31;34464;-67
2021/12/28 06:50:25;;;;;;;43.45;16.25;;;;;;;-1.26;100.00;99998.53;5589452;31;33958;-67
2021/12/28 06:53:28;;;;;;;39.63;15.10;;;;;;;-1.16;100.00;99991.75;5589457;31;33871;-68
2021/12/28 06:56:32;;;;;;;34.42;12.88;;;;;;;-1.24;100.00;99996.66;5589459;31;34035;-68
2021/12/28 06:59:43;;;;;;;32.95;12.93;;;;;;;-1.10;100.00;99996.56;5589497;31;34599;-67
2021/12/28 07:02:45;;;;;;;;;;;;;;;-0.98;100.00;99997.50;5576299;31;34284;-67
2021/12/28 07:05:49;;;;;;;35.65;12.88;;;;;;;-0.97;100.00;99999.19;5588793;31;34828;-68
2021/12/28 07:08:51;;;;;;;34.40;13.55;;;;;;;-0.82;100.00;99998.12;5588494;31;33899;-68
2021/12/28 07:11:54;;;;;;;32.67;12.23;;;;;;;-0.90;100.00;100001.25;5589325;31;33981;-67
2021/12/28 07:14:58;;;;;;;31.58;12.25;;;;;;;-0.82;100.00;100002.53;5589402;31;34332;-68
2021/12/28 07:18:01;;;;;;;35.10;13.15;;;;;;;-0.71;100.00;100008.62;5589223;31;34053;-68
2021/12/28 07:21:04;;;;;;;31.37;12.75;;;;;;;-0.73;100.00;100004.50;5589123;31;34079;-68
2021/12/28 07:24:09;;;;;;;31.52;11.98;;;;;;;-0.76;100.00;100013.31;5589532;31;34015;-67
2021/12/28 07:27:12;;;;;;;37.28;12.98;;;;;;;-0.73;100.00;100026.16;5588921;31;33934;-68
2021/12/28 07:30:14;;;;;;;25.45;11.10;;;;;;;-0.84;100.00;100023.44;5589132;31;34327;-67
2021/12/28 07:33:17;;;;;;;29.17;11.80;;;;;;;-0.62;100.00;100035.81;5588716;31;33950;-70
2021/12/28 07:36:20;;;;;;;33.35;12.00;;;;;;;-0.53;100.00;100035.19;5588887;31;34457;-68
2021/12/28 07:39:23;;;;;;;32.92;11.65;;;;;;;-0.84;100.00;100023.44;5588928;31;35169;-68
2021/12/28 07:42:26;;;;;;;32.90;13.27;;;;;;;-0.85;100.00;100026.16;5587923;31;34745;-67
2021/12/28 07:45:29;;;;;;;32.95;13.20;;;;;;;-0.83;100.00;100021.69;5588561;31;34770;-68
2021/12/28 07:48:33;;;;;;;35.22;13.25;;;;;;;-0.83;100.00;100032.94;5588717;31;34447;-69
2021/12/28 07:51:36;;;;;;;39.53;15.23;;;;;;;-0.66;100.00;100030.00;5587883;31;34039;-68
2021/12/28 07:54:39;;;;;;;39.67;15.38;;;;;;;-0.80;100.00;100030.09;5588381;31;34215;-67
2021/12/28 07:57:42;;;;;;;41.67;15.48;;;;;;;-0.85;100.00;100029.59;5588519;31;34646;-68
2021/12/28 08:00:45;;;;;;;36.30;16.20;;;;;;;-0.75;100.00;100025.41;5588388;31;34480;-69
2021/12/28 08:03:48;;;;;;;42.40;15.82;;;;;;;-0.59;100.00;100035.62;5587620;31;34288;-69
2021/12/28 08:06:51;;;;;;;40.22;14.05;;;;;;;-0.54;100.00;100043.97;5587502;31;34169;-67
2021/12/28 08:09:54;;;;;;;37.28;15.23;;;;;;;-0.55;100.00;100037.91;5588368;31;35285;-68
2021/12/28 08:12:58;;;;;;;35.72;13.30;;;;;;;-0.58;100.00;100032.91;5588288;31;35194;-68
2021/12/28 08:16:01;;;;;;;33.50;13.30;;;;;;;-0.64;100.00;100025.53;5587962;31;34050;-70
2021/12/28 08:19:06;;;;;;;31.35;13.77;;;;;;;-0.77;100.00;100023.84;5590370;31;34029;-68
2021/12/28 08:22:19;;;;;;;31.27;13.35;;;;;;;-0.72;100.00;100033.00;5590700;31;34097;-68
2021/12/28 08:25:22;;;;;;;33.35;12.48;;;;;;;-0.53;100.00;100020.37;5590772;31;34590;-68
2021/12/28 08:28:25;;;;;;;26.40;11.00;;;;;;;-0.50;100.00;100027.19;5589808;31;34252;-67
2021/12/28 08:31:28;;;;;;;23.48;10.23;;;;;;;-0.51;100.00;100026.34;5590000;31;34028;-68
2021/12/28 08:34:31;;;;;;;29.10;10.63;;;;;;;-0.51;100.00;100030.72;5590718;31;34405;-70
2021/12/28 08:37:34;;;;;;;29.67;12.30;;;;;;;-0.35;100.00;100033.94;5590640;31;34649;-69
2021/12/28 08:40:40;;;;;;;31.30;12.50;;;;;;;-0.33;100.00;100029.44;5590791;31;33964;-70
2021/12/28 08:43:44;;;;;;;33.50;14.00;;;;;;;-0.25;100.00;100023.69;5590682;31;34328;-68
2021/12/28 08:46:47;;;;;;;28.00;12.23;;;;;;;-0.21;100.00;100022.53;5590607;31;34636;-70
2021/12/28 08:49:50;;;;;;;34.00;14.50;;;;;;;-0.50;100.00;100030.63;5590985;31;34026;-70
2021/12/28 08:52:52;;;;;;;36.58;14.50;;;;;;;-0.47;100.00;100034.78;5590589;31;34302;-68
2021/12/28 08:55:55;;;;;;;32.28;13.70;;;;;;;-0.39;100.00;100023.81;5590789;31;34648;-70
2021/12/28 08:58:58;;;;;;;40.85;14.00;;;;;;;-0.38;100.00;100034.13;5590838;31;34668;-68
2021/12/28 09:02:00;;;;;;;29.35;13.20;;;;;;;-0.42;100.00;100030.06;5590328;31;34095;-70
2021/12/28 09:05:04;;;;;;;29.02;12.77;;;;;;;-0.41;100.00;100034.34;5590410;31;33903;-68
2021/12/28 09:08:11;;;;;;;29.63;12.40;;;;;;;-0.29;100.00;100036.09;5590215;31;34318;-70
2021/12/28 09:11:14;;;;;;;34.33;13.88;;;;;;;-0.13;100.00;100028.88;5590230;31;34283;-68
2021/12/28 09:14:16;;;;;;;35.38;16.55;;;;;;;-0.44;100.00;100030.16;5590342;31;34145;-68
2021/12/28 09:17:19;;;;;;;35.75;14.30;;;;;;;-0.54;100.00;100023.97;5589603;31;34249;-68
2021/12/28 09:20:24;;;;;;;33.17;13.90;;;;;;;-0.41;100.00;100016.09;5590284;31;34110;-68
2021/12/28 09:23:40;;;;;;;35.58;13.38;;;;;;;-0.26;100.00;100022.84;5589650;31;34504;-69
2021/12/28 09:27:03;;;;;;;35.90;16.30;;;;;;;-0.22;100.00;100021.69;5590387;31;33987;-69
2021/12/28 09:30:07;;;;;;;37.25;15.23;;;;;;;-0.17;100.00;100010.94;5589802;31;34067;-68
2021/12/28 09:33:13;;;;;;;35.58;15.45;;;;;;;-0.27;100.00;100002.09;5590294;31;34033;-69
2021/12/28 09:36:16;;;;;;;38.65;16.08;;;;;;;-0.40;100.00;99996.94;5589367;31;34457;-68
2021/12/28 09:39:24;;;;;;;38.03;16.05;;;;;;;-0.36;100.00;99998.38;5590095;31;34338;-68
2021/12/28 09:42:27;;;;;;;37.72;16.40;;;;;;;-0.41;100.00;100004.84;5590377;31;34596;-70
2021/12/28 09:45:29;;;;;;;38.63;15.73;;;;;;;-0.39;100.00;100006.41;5590119;31;35169;-70
2021/12/28 09:48:33;;;;;;;31.70;13.82;;;;;;;-0.41;100.00;100007.44;5589291;31;33864;-69
2021/12/28 09:51:35;;;;;;;37.97;16.00;;;;;;;-0.28;100.00;100014.31;5589952;31;34599;-68
2021/12/28 09:54:39;;;;;;;36.90;15.60;;;;;;;-0.23;100.00;100019.19;5589797;31;34014;-70
2021/12/28 09:57:42;;;;;;;35.38;14.57;;;;;;;-0.32;100.00;100017.22;5589952;31;34015;-68
2021/12/28 10:00:45;;;;;;;36.90;15.60;;;;;;;-0.17;100.00;100013.53;5590314;31;34360;-68
2021/12/28 10:03:48;;;;;;;33.17;14.43;;;;;;;0.00;100.00;100023.63;5589948;31;34037;-68
2021/12/28 10:06:50;;;;;;;32.65;14.65;;;;;;;-0.04;100.00;100024.75;5589855;31;33862;-69
2021/12/28 10:09:54;;;;;;;31.75;13.73;;;;;;;-0.01;100.00;100021.97;5589891;31;34131;-68
2021/12/28 10:13:00;;;;;;;33.45;15.07;;;;;;;0.00;100.00;100008.78;5590066;31;34449;-68
2021/12/28 10:16:04;;;;;;;32.92;15.32;;;;;;;-0.09;100.00;100008.59;5589920;31;34591;-68
2021/12/28 10:19:34;;;;;;;39.70;16.15;;;;;;;-0.22;100.00;100008.66;5589855;31;33872;-69
2021/12/28 10:22:47;;;;;;;35.33;15.40;;;;;;;-0.10;100.00;99994.75;5589922;31;33878;-68
2021/12/28 10:25:53;;;;;;;37.72;16.23;;;;;;;0.02;100.00;99995.66;5589781;31;34665;-68
2021/12/28 10:28:56;;;;;;;33.42;14.18;;;;;;;-0.03;100.00;99990.75;5585293;31;139030;-68
2021/12/28 10:32:25;;;;;;;34.20;14.57;;;;;;;-0.03;100.00;99997.75;5590103;31;33923;-68
2021/12/28 10:35:32;;;;;;;34.63;14.90;;;;;;;-0.21;100.00;99981.66;5589509;31;34611;-68
2021/12/28 10:38:41;;;;;;;38.92;17.05;;;;;;;-0.19;100.00;99977.16;5589591;31;34396;-70
2021/12/28 10:41:43;;;;;;;36.72;14.63;;;;;;;-0.17;100.00;99980.50;5588476;31;34496;-70
2021/12/28 10:45:09;;;;;;;38.72;16.02;;;;;;;-0.14;100.00;99979.44;5589959;31;34016;-68
2021/12/28 10:48:19;;;;;;;40.25;17.62;;;;;;;-0.22;100.00;99982.59;5589307;31;34619;-70
2021/12/28 10:51:34;;;;;;;41.37;16.40;;;;;;;-0.10;100.00;99967.88;5588783;31;33960;-68
2021/12/28 10:54:37;;;;;;;41.03;17.20;;;;;;;-0.30;100.00;99973.66;5589667;31;34253;-69
2021/12/28 10:57:40;;;;;;;45.00;19.40;;;;;;;-0.28;100.00;99969.16;5589805;31;34370;-69
2021/12/28 11:00:43;;;;;;;49.00;20.02;;;;;;;-0.21;100.00;99967.78;5589571;31;33997;-70
2021/12/28 11:03:55;;;;;;;38.33;15.43;;;;;;;-0.17;100.00;99967.47;5589174;31;35287;-68
2021/12/28 11:06:59;;;;;;;34.50;14.50;;;;;;;-0.19;100.00;99961.50;5589231;31;34409;-68
2021/12/28 11:10:03;;;;;;;41.83;16.77;;;;;;;-0.33;100.00;99960.81;5589352;31;33907;-70
2021/12/28 11:13:06;;;;;;;42.60;18.70;;;;;;;-0.35;100.00;99960.12;5588451;31;34161;-70
2021/12/28 11:16:12;;;;;;;40.88;17.20;;;;;;;-0.21;100.00;99962.56;5589175;31;34077;-67
2021/12/28 11:19:25;;;;;;;35.88;15.88;;;;;;;-0.17;100.00;99946.59;5589196;31;34462;-68
2021/12/28 11:22:27;;;;;;;36.55;15.43;;;;;;;-0.22;100.00;99940.87;5589106;31;34556;-68
2021/12/28 11:25:30;;;;;;;35.78;15.70;;;;;;;-0.07;100.00;99945.00;5588936;31;34028;-69
2021/12/28 11:28:34;;;;;;;37.05;15.63;;;;;;;-0.20;100.00;99948.59;5589257;31;34582;-68
2021/12/28 11:31:40;;;;;;;31.23;13.77;;;;;;;-0.21;100.00;99942.56;5588922;31;34687;-68
2021/12/28 11:34:45;;;;;;;33.22;13.38;;;;;;;-0.16;100.00;99943.06;5588926;31;33689;-68
2021/12/28 11:37:48;;;;;;;35.90;14.80;;;;;;;-0.15;100.00;99930.88;5588771;31;33928;-70
2021/12/28 11:40:51;;;;;;;34.35;14.40;;;;;;;-0.32;100.00;99939.87;5589031;31;34700;-69
2021/12/28 11:43:56;;;;;;;36.65;15.20;;;;;;;-0.26;100.00;99933.41;5588873;31;34593;-70
2021/12/28 11:47:00;;;;;;;34.65;15.57;;;;;;;-0.25;100.00;99928.09;5587934;31;33942;-70
2021/12/28 11:50:04;;;;;;;32.95;14.20;;;;;;;-0.29;100.00;99923.22;5588687;31;33949;-68
2021/12/28 11:53:11;;;;;;;33.38;12.75;;;;;;;-0.17;100.00;99910.09;5590398;31;33999;-68
2021/12/28 11:56:18;;;;;;;33.10;13.62;;;;;;;-0.28;100.00;99914.41;5591226;31;33975;-69
2021/12/28 11:59:26;;;;;;;32.53;13.73;;;;;;;-0.27;100.00;99890.03;5591099;31;34161;-68
2021/12/28 12:02:51;;;;;;;32.30;13.82;;;;;;;-0.13;100.00;99884.63;5590359;31;35424;-69
2021/12/28 12:05:54;;;;;;;32.25;13.05;;;;;;;-0.26;100.00;99882.09;5590845;31;33866;-68
2021/12/28 12:09:05;;;;;;;34.40;13.88;;;;;;;-0.16;100.00;99896.13;5591197;31;34618;-70
2021/12/28 12:12:07;;;;;;;33.22;14.40;;;;;;;-0.16;100.00;99877.88;5591001;31;33972;-71
2021/12/28 12:15:12;;;;;;;32.03;14.40;;;;;;;-0.16;100.00;99866.63;5591211;31;34125;-70
2021/12/28 12:18:18;;;;;;;32.13;13.55;;;;;;;-0.14;100.00;99862.13;5590739;31;34116;-69
2021/12/28 12:21:21;;;;;;;28.23;12.65;;;;;;;-0.16;100.00;99861.41;5590761;31;34777;-69
2021/12/28 12:24:36;;;;;;;25.98;11.35;;;;;;;-0.21;100.00;99851.31;5590904;31;34058;-69
2021/12/28 12:27:51;;;;;;;23.83;11.12;;;;;;;-0.15;100.00;99853.50;5590615;31;33865;-70
2021/12/28 12:30:57;;;;;;;24.75;10.30;;;;;;;-0.05;100.00;99849.22;5590849;31;34044;-69
2021/12/28 12:34:01;;;;;;;22.98;9.38;;;;;;;-0.07;100.00;99837.25;5590744;31;34604;-69
2021/12/28 12:37:16;;;;;;;20.80;8.68;;;;;;;-0.13;100.00;99833.34;5590802;31;34013;-68
2021/12/28 12:40:19;;;;;;;15.88;7.43;;;;;;;-0.11;100.00;99828.00;5590724;31;34017;-68
2021/12/28 12:43:24;;;;;;;17.70;7.45;;;;;;;-0.20;100.00;99821.72;5590736;31;34053;-68
2021/12/28 12:46:31;;;;;;;17.65;7.60;;;;;;;-0.04;100.00;99821.38;5590594;31;35424;-70
2021/12/28 12:49:34;;;;;;;15.13;7.10;;;;;;;-0.02;100.00;99819.50;5590268;31;33820;-70
2021/12/28 12:52:38;;;;;;;18.85;7.37;;;;;;;-0.07;100.00;99819.00;5590661;31;34140;-70
2021/12/28 12:55:43;;;;;;;19.17;7.40;;;;;;;-0.17;100.00;99818.87;5590019;31;33945;-69
2021/12/28 12:58:47;;;;;;;18.67;6.72;;;;;;;-0.25;100.00;99810.78;5590546;31;34661;-70
2021/12/28 13:02:13;;;;;;;16.92;7.97;;;;;;;-0.22;100.00;99825.34;5590503;31;34789;-70
2021/12/28 13:05:21;;;;;;;14.43;7.12;;;;;;;-0.09;100.00;99815.69;5589078;31;35270;-70
2021/12/28 13:08:24;;;;;;;14.05;6.90;;;;;;;-0.10;100.00;99825.28;5589610;31;35151;-70
2021/12/28 13:11:32;;;;;;;15.35;6.95;;;;;;;-0.18;100.00;99817.19;5590466;31;33992;-70
2021/12/28 13:14:35;;;;;;;15.25;6.95;;;;;;;-0.18;100.00;99826.78;5590697;31;34596;-70
2021/12/28 13:17:42;;;;;;;17.05;7.30;;;;;;;-0.18;100.00;99826.78;5590242;31;34253;-71
2021/12/28 13:20:47;;;;;;;15.43;6.80;;;;;;;-0.23;100.00;99827.13;5590306;31;33916;-70
2021/12/28 13:24:11;;;;;;;13.07;6.50;;;;;;;-0.09;100.00;99842.59;5590307;31;33930;-70
2021/12/28 13:27:17;;;;;;;17.75;7.20;;;;;;;-0.06;100.00;99836.31;5590247;31;34568;-70
2021/12/28 13:30:24;;;;;;;16.15;7.37;;;;;;;-0.24;100.00;99830.69;5590311;31;34049;-70
2021/12/28 13:33:45;;;;;;;14.20;6.45;;;;;;;-0.26;100.00;99836.97;5590123;31;34526;-70
2021/12/28 13:36:52;;;;;;;17.17;6.43;;;;;;;-0.28;100.00;99837.06;5590235;31;33963;-69
2021/12/28 13:40:01;;;;;;;12.52;5.75;;;;;;;-0.11;100.00;99838.44;5589622;31;34628;-70
2021/12/28 13:43:10;;;;;;;14.10;6.10;;;;;;;-0.20;100.00;99841.72;5590123;31;34562;-70
2021/12/28 13:46:13;;;;;;;13.43;6.40;;;;;;;-0.30;100.00;99832.91;5590103;31;34062;-69
2021/12/28 13:49:15;;;;;;;22.87;6.62;;;;;;;-0.21;100.00;99829.62;5589809;31;34145;-70
2021/12/28 13:52:19;;;;;;;12.48;5.65;;;;;;;-0.28;100.00;99829.25;5590018;31;34004;-70
2021/12/28 13:55:31;;;;;;;13.05;5.90;;;;;;;-0.19;100.00;99825.13;5590101;31;34045;-70
2021/12/28 13:58:41;;;;;;;15.75;8.77;;;;;;;-0.21;100.00;99830.47;5590138;31;35234;-70
2021/12/28 14:01:45;;;;;;;16.40;7.35;;;;;;;-0.25;100.00;99833.41;5590125;31;34519;-70
2021/12/28 14:04:48;;;;;;;13.23;6.75;;;;;;;-0.20;100.00;99826.09;5589886;31;34708;-70